Springville, CA (93265)

9:05 PM PDT on September 20, 2014 (GMT -0700)
Orchard Ridge | Change Station
CLOSE
Current Station
Personal Weather Station
Location: Porterville, CA
Elevation: 423 ft
Nearby Weather Stations

Elev 423 ft 36.09 °N, 119.06 °W | Updated 10 seconds ago

Partly Cloudy
Partly Cloudy
79.1 °F
Feels Like 80 °F
N
0.0
Wind Variable Wind from North
Gusts 0.0 mph

Today
High -- | Low -- °F
--% Chance of Precip.
Yesterday
High -- | Low -- °F
Precip. -- in
6:41 AM 6:55 PM
Waning Crescent, 9% visible
Pressure 29.84 in
Visibility 10.0 miles
Clouds Clear
Heat Index 80 °F
Dew Point 61 °F
Humidity 54%
Rainfall 0.00 in
Snow Depth 0 in , 1 in , 1 in
UV 0 out of 12
Pollen 7.10 out of 12
Air Quality Not available.
Flu Activity Not available.
METAR KPTV 210355Z 35003KT 10SM CLR 27/14 A2984 RMK AO1

More Conditions Fewer Conditions

Pressure 29.84 in
Visibility 10.0 miles
Clouds Clear
Heat Index 80 °F
Dew Point 61 °F
Humidity 54%
Rainfall 0.00 in
Snow Depth 0 in , 1 in , 1 in
UV 0 out of 12
Pollen 7.10 out of 12
Air Quality Not available.
Flu Activity Not available.
METAR KPTV 210355Z 35003KT 10SM CLR 27/14 A2984 RMK AO1

More Conditions Fewer Conditions

10-Day Weather Forecast

Almanac

Astronomy

Sep. 20, 2014 Rise Set
Actual Time 6:41 AM PDT 6:55 PM PDT
Civil Twilight 6:16 AM PDT 7:20 PM PDT
Nautical Twilight 5:46 AM PDT 7:50 PM PDT
Astronomical Twilight 5:15 AM PDT 8:20 PM PDT
Moon 3:30 AM PDT (9/20) 4:57 PM PDT (9/20)
Length of Visible Light 13h 04m
Length of Day
12h 13m
Tomorrow will be 2m 16s shorter.
Waning Crescent, 9% of the Moon is Illuminated
Sep 21
Waning Crescent
Sep 24
New
Oct 1
First Quarter
Oct 8
Full
Oct 15
Last Quarter

Today's Extremes

State Highs State Lows

Community

WunderPhotos

Upload Photos

1,755,084 photos uploaded!

Nearby

Snow Depth

Station Depth Elevation
Echo Peak 1 in 7800 ft
Blue Lakes 0 in 8000 ft
Summit Meadow 1 in 9122 ft
Spratt Creek 1 in 6200 ft
Leavitt Meadows 2 in 7200 ft

Earthquake Activity

City Distance Mag. Time & Date
Inyokern, California 54 miles 3.1 5:33 PM PDT
2014-09-19
Corcoran, California 45 miles 2.9 3:59 PM PDT
2014-09-18
Minimum magnitude displayed is 2.5.

Coastal Water Temperatures

Place Temperature
No Stations Reporting

Nearby Weather Stations